OOCL Hamburg — VRZK9 — position and weather

sailwx.info

Track history (hours):
 
Tides and Currents Weather Stations Pressure Air Temp Water Temp Dewpoint Dewpoint Depression Visibility Wind Speed Wind Dir Waves Ship Positions

OOCL Hamburg

Last reported at 2015-Jan-29 09:31 UTC. Time now 2015-Jan-30 14:02 UTC.
Position N 36°22' E 014°21'.

Length 323 m; beam 42.8 m; draft 14.5 m.

Type: Cargo ship. MMSI: 477702000.

Date/timePositionNaut miles runAvg speedWind from/ knotsBaromVisibWave heightAir tempDewpointWater temp
2015-Jan-29 09:31N 36°22' E 014°21'2517.0
2015-Jan-29 08:04N 36°29' E 013°52'59717.6
2015-Jan-27 22:06N 36°49' E 001°29'1018.4
2015-Jan-27 21:33N 36°48' E 001°16'2020.0
2015-Jan-27 20:33N 36°44' E 000°52'2519.5
2015-Jan-27 19:16N 36°41' E 000°21'1419.1
2015-Jan-27 18:33N 36°39' E 000°04'3918.7
2015-Jan-27 16:28N 36°33' W 000°44'22218.7
2015-Jan-27 04:33N 35°60' W 005°17'16518.4
2015-Jan-26 19:33N 35°58' W 008°41'3818.0
2015-Jan-26 17:28N 35°59' W 009°28'1617.8
2015-Jan-26 16:33N 35°60' W 009°48'1818.0
2015-Jan-26 15:33N 36°02' W 010°10'1818.5
2015-Jan-26 14:33N 36°08' W 010°31'1818.2
2015-Jan-26 13:33N 36°14' W 010°53'1818.1
2015-Jan-26 12:33N 36°21' W 011°14'1917.9
2015-Jan-26 11:31N 36°26' W 011°36'1717.7
2015-Jan-26 10:33N 36°32' W 011°56'1817.6
2015-Jan-26 09:33N 36°38' W 012°16'1818.0
2015-Jan-26 08:33N 36°43' W 012°38'1717.4
2015-Jan-26 07:33N 36°49' W 012°58'1717.2
2015-Jan-26 06:33N 36°55' W 013°18'1717.4
2015-Jan-26 05:33N 37°00' W 013°39'1817.5
2015-Jan-26 04:33N 37°06' W 014°00'1817.5
2015-Jan-26 03:32N 37°12' W 014°21'1717.6
2015-Jan-26 02:33N 37°18' W 014°42'5917.8
2015-Jan-25 23:16N 37°36' W 015°52'1317.9
2015-Jan-25 22:31N 37°40' W 016°08'2517.6
2015-Jan-25 21:04N 37°47' W 016°39'1217.7
2015-Jan-25 20:25N 37°50' W 016°53'33318.3
2015-Jan-25 02:11N 39°13' W 023°45'9018.3
2015-Jan-24 21:15N 39°31' W 025°39'9118.3
2015-Jan-24 16:17N 39°47' W 027°35'1418.8
2015-Jan-24 15:33N 39°50' W 027°53'1918.7
2015-Jan-24 14:33N 39°53' W 028°17'1818.4
2015-Jan-24 13:33N 39°56' W 028°41'1818.3
2015-Jan-24 12:33N 39°59' W 029°04'1818.3
2015-Jan-24 11:33N 40°01' W 029°28'1818.4
2015-Jan-24 10:34N 40°04' W 029°51'5718.5
2015-Jan-24 07:30N 40°12' W 031°05'2618.1
2015-Jan-24 06:05N 40°15' W 031°38'1018.1
2015-Jan-24 05:33N 40°16' W 031°51'  
Track history (hours):
 
Tides and Currents Weather Stations Pressure Air Temp Water Temp Dewpoint Dewpoint Depression Visibility Wind Speed Wind Dir Waves Ship Positions

OOCL Hamburg

Last reported at 2015-Jan-29 09:31 UTC. Time now 2015-Jan-30 14:02 UTC.
Position N 36°22' E 014°21'.

Length 323 m; beam 42.8 m; draft 14.5 m.

Type: Cargo ship. MMSI: 477702000.

Date/timePositionNaut miles runAvg speedWind from/ knotsBaromVisibWave heightAir tempDewpointWater temp
2015-Jan-29 09:31N 36°22' E 014°21'2517.0
2015-Jan-29 08:04N 36°29' E 013°52'59717.6
2015-Jan-27 22:06N 36°49' E 001°29'1018.4
2015-Jan-27 21:33N 36°48' E 001°16'2020.0
2015-Jan-27 20:33N 36°44' E 000°52'2519.5
2015-Jan-27 19:16N 36°41' E 000°21'1419.1
2015-Jan-27 18:33N 36°39' E 000°04'3918.7
2015-Jan-27 16:28N 36°33' W 000°44'22218.7
2015-Jan-27 04:33N 35°60' W 005°17'16518.4
2015-Jan-26 19:33N 35°58' W 008°41'3818.0
2015-Jan-26 17:28N 35°59' W 009°28'1617.8
2015-Jan-26 16:33N 35°60' W 009°48'1818.0
2015-Jan-26 15:33N 36°02' W 010°10'1818.5
2015-Jan-26 14:33N 36°08' W 010°31'1818.2
2015-Jan-26 13:33N 36°14' W 010°53'1818.1
2015-Jan-26 12:33N 36°21' W 011°14'1917.9
2015-Jan-26 11:31N 36°26' W 011°36'1717.7
2015-Jan-26 10:33N 36°32' W 011°56'1817.6
2015-Jan-26 09:33N 36°38' W 012°16'1818.0
2015-Jan-26 08:33N 36°43' W 012°38'1717.4
2015-Jan-26 07:33N 36°49' W 012°58'1717.2
2015-Jan-26 06:33N 36°55' W 013°18'1717.4
2015-Jan-26 05:33N 37°00' W 013°39'1817.5
2015-Jan-26 04:33N 37°06' W 014°00'1817.5
2015-Jan-26 03:32N 37°12' W 014°21'1717.6
2015-Jan-26 02:33N 37°18' W 014°42'5917.8
2015-Jan-25 23:16N 37°36' W 015°52'1317.9
2015-Jan-25 22:31N 37°40' W 016°08'2517.6
2015-Jan-25 21:04N 37°47' W 016°39'1217.7
2015-Jan-25 20:25N 37°50' W 016°53'33318.3
2015-Jan-25 02:11N 39°13' W 023°45'9018.3
2015-Jan-24 21:15N 39°31' W 025°39'9118.3
2015-Jan-24 16:17N 39°47' W 027°35'1418.8
2015-Jan-24 15:33N 39°50' W 027°53'1918.7
2015-Jan-24 14:33N 39°53' W 028°17'1818.4
2015-Jan-24 13:33N 39°56' W 028°41'1818.3
2015-Jan-24 12:33N 39°59' W 029°04'1818.3
2015-Jan-24 11:33N 40°01' W 029°28'1818.4
2015-Jan-24 10:34N 40°04' W 029°51'5718.5
2015-Jan-24 07:30N 40°12' W 031°05'2618.1
2015-Jan-24 06:05N 40°15' W 031°38'1018.1
2015-Jan-24 05:33N 40°16' W 031°51'  

Dump ship's entire track history